sensor_id;sensor_type;location;lat;lon;timestamp;pressure;altitude;pressure_sealevel;temperature;humidity
12213;BME280;6169;44.158;22.788;2023-02-23T00:04:13;101033.38;;;6.87;58.11
12213;BME280;6169;44.158;22.788;2023-02-23T00:09:18;101036.16;;;7.21;57.05
12213;BME280;6169;44.158;22.788;2023-02-23T00:14:25;101046.09;;;6.94;56.86
12213;BME280;6169;44.158;22.788;2023-02-23T00:19:29;101025.28;;;6.87;56.52
12213;BME280;6169;44.158;22.788;2023-02-23T00:24:33;101060.22;;;6.89;56.30
12213;BME280;6169;44.158;22.788;2023-02-23T00:29:37;101065.97;;;6.79;56.92
12213;BME280;6169;44.158;22.788;2023-02-23T00:34:41;101070.72;;;6.71;56.01
12213;BME280;6169;44.158;22.788;2023-02-23T00:39:44;101065.25;;;7.12;56.65
12213;BME280;6169;44.158;22.788;2023-02-23T00:44:46;101060.28;;;7.16;56.34
12213;BME280;6169;44.158;22.788;2023-02-23T00:49:50;101062.81;;;7.44;55.26
12213;BME280;6169;44.158;22.788;2023-02-23T00:54:53;101067.75;;;7.00;57.29
12213;BME280;6169;44.158;22.788;2023-02-23T00:59:56;101070.44;;;7.00;54.36
12213;BME280;6169;44.158;22.788;2023-02-23T01:04:59;101074.53;;;6.83;53.75
12213;BME280;6169;44.158;22.788;2023-02-23T01:10:02;101069.97;;;6.35;54.81
12213;BME280;6169;44.158;22.788;2023-02-23T01:15:19;101072.91;;;6.40;54.92
12213;BME280;6169;44.158;22.788;2023-02-23T01:20:23;101076.00;;;6.09;54.23
12213;BME280;6169;44.158;22.788;2023-02-23T01:25:26;101068.00;;;6.64;54.01
12213;BME280;6169;44.158;22.788;2023-02-23T01:30:29;101074.63;;;6.55;52.81
12213;BME280;6169;44.158;22.788;2023-02-23T01:35:33;101070.94;;;6.69;52.84
12213;BME280;6169;44.158;22.788;2023-02-23T01:40:35;101076.78;;;6.31;53.54
12213;BME280;6169;44.158;22.788;2023-02-23T01:45:39;101079.56;;;6.10;54.20
12213;BME280;6169;44.158;22.788;2023-02-23T01:50:55;101077.16;;;6.28;53.32
12213;BME280;6169;44.158;22.788;2023-02-23T01:56:04;101082.13;;;5.90;57.00
12213;BME280;6169;44.158;22.788;2023-02-23T02:01:12;101093.97;;;6.58;54.26
12213;BME280;6169;44.158;22.788;2023-02-23T02:06:17;101086.59;;;6.45;55.47
12213;BME280;6169;44.158;22.788;2023-02-23T02:11:23;101104.97;;;5.66;57.61
12213;BME280;6169;44.158;22.788;2023-02-23T02:17:00;101095.78;;;6.10;54.92
12213;BME280;6169;44.158;22.788;2023-02-23T02:22:21;101100.53;;;5.80;55.74
12213;BME280;6169;44.158;22.788;2023-02-23T02:27:42;100953.91;;;5.31;54.80
12213;BME280;6169;44.158;22.788;2023-02-23T02:38:34;101119.53;;;5.71;56.36
12213;BME280;6169;44.158;22.788;2023-02-23T02:43:47;101118.09;;;5.97;56.29
12213;BME280;6169;44.158;22.788;2023-02-23T02:48:57;101122.41;;;5.91;57.52
12213;BME280;6169;44.158;22.788;2023-02-23T02:54:05;101139.00;;;5.88;57.36
12213;BME280;6169;44.158;22.788;2023-02-23T02:59:12;101137.22;;;5.74;57.84
12213;BME280;6169;44.158;22.788;2023-02-23T03:04:32;101141.00;;;5.80;56.48
12213;BME280;6169;44.158;22.788;2023-02-23T03:09:55;101140.75;;;6.03;56.35
12213;BME280;6169;44.158;22.788;2023-02-23T03:15:27;101145.88;;;6.19;56.01
12213;BME280;6169;44.158;22.788;2023-02-23T03:20:52;101151.53;;;6.24;55.82
12213;BME280;6169;44.158;22.788;2023-02-23T03:26:20;101149.78;;;5.88;56.21
12213;BME280;6169;44.158;22.788;2023-02-23T03:31:46;101153.22;;;6.04;56.66
12213;BME280;6169;44.158;22.788;2023-02-23T03:37:13;101163.94;;;5.69;56.18
12213;BME280;6169;44.158;22.788;2023-02-23T03:42:37;101165.34;;;5.65;55.63
12213;BME280;6169;44.158;22.788;2023-02-23T03:48:01;101176.06;;;5.80;55.63
12213;BME280;6169;44.158;22.788;2023-02-23T03:53:26;101181.78;;;5.48;55.98
12213;BME280;6169;44.158;22.788;2023-02-23T03:58:50;101185.63;;;5.39;58.07
12213;BME280;6169;44.158;22.788;2023-02-23T04:04:13;101197.19;;;5.54;56.96
12213;BME280;6169;44.158;22.788;2023-02-23T04:09:33;101197.81;;;5.20;56.52
12213;BME280;6169;44.158;22.788;2023-02-23T04:14:58;101193.69;;;5.24;56.90
12213;BME280;6169;44.158;22.788;2023-02-23T04:20:02;101206.47;;;5.16;55.45
12213;BME280;6169;44.158;22.788;2023-02-23T04:25:05;101205.84;;;5.28;55.75
12213;BME280;6169;44.158;22.788;2023-02-23T04:30:11;101195.78;;;5.22;55.90
12213;BME280;6169;44.158;22.788;2023-02-23T04:35:13;101184.03;;;5.45;53.77
12213;BME280;6169;44.158;22.788;2023-02-23T04:40:16;101194.28;;;5.20;54.58
12213;BME280;6169;44.158;22.788;2023-02-23T04:45:21;101200.69;;;5.19;54.09
12213;BME280;6169;44.158;22.788;2023-02-23T04:50:24;101200.00;;;4.80;54.02
12213;BME280;6169;44.158;22.788;2023-02-23T04:55:26;101197.75;;;4.99;53.32
12213;BME280;6169;44.158;22.788;2023-02-23T05:00:30;101199.16;;;4.50;55.08
12213;BME280;6169;44.158;22.788;2023-02-23T05:05:33;101203.47;;;4.22;56.75
12213;BME280;6169;44.158;22.788;2023-02-23T05:10:36;101207.16;;;4.58;54.79
12213;BME280;6169;44.158;22.788;2023-02-23T05:15:41;101205.47;;;4.05;56.36
12213;BME280;6169;44.158;22.788;2023-02-23T05:20:44;101211.13;;;4.48;54.61
12213;BME280;6169;44.158;22.788;2023-02-23T05:25:46;101215.31;;;4.50;55.41
12213;BME280;6169;44.158;22.788;2023-02-23T05:30:50;101235.22;;;4.26;55.29
12213;BME280;6169;44.158;22.788;2023-02-23T05:35:52;101239.19;;;4.68;54.12
12213;BME280;6169;44.158;22.788;2023-02-23T05:40:55;101245.44;;;4.31;55.64
12213;BME280;6169;44.158;22.788;2023-02-23T05:45:58;101248.56;;;4.19;58.44
12213;BME280;6169;44.158;22.788;2023-02-23T05:51:02;101265.03;;;4.77;54.80
12213;BME280;6169;44.158;22.788;2023-02-23T05:56:05;101199.47;;;4.17;55.89
12213;BME280;6169;44.158;22.788;2023-02-23T06:01:10;101283.53;;;4.95;55.05
12213;BME280;6169;44.158;22.788;2023-02-23T06:06:13;101272.03;;;5.31;53.82
12213;BME280;6169;44.158;22.788;2023-02-23T06:11:15;101296.44;;;5.15;55.29
12213;BME280;6169;44.158;22.788;2023-02-23T06:16:19;101302.16;;;5.71;54.29
12213;BME280;6169;44.158;22.788;2023-02-23T06:21:21;101306.03;;;5.83;54.91
12213;BME280;6169;44.158;22.788;2023-02-23T06:26:24;101206.00;;;5.42;55.43
12213;BME280;6169;44.158;22.788;2023-02-23T06:31:28;101315.25;;;6.10;56.51
12213;BME280;6169;44.158;22.788;2023-02-23T06:36:30;101310.38;;;6.70;57.00
12213;BME280;6169;44.158;22.788;2023-02-23T06:41:33;101319.78;;;7.02;56.86
12213;BME280;6169;44.158;22.788;2023-02-23T06:46:37;101324.09;;;7.25;56.17
12213;BME280;6169;44.158;22.788;2023-02-23T06:51:39;101324.53;;;7.28;57.27
12213;BME280;6169;44.158;22.788;2023-02-23T06:56:41;101330.75;;;7.29;57.28
12213;BME280;6169;44.158;22.788;2023-02-23T07:01:45;101327.00;;;6.95;58.60
12213;BME280;6169;44.158;22.788;2023-02-23T07:06:47;101337.25;;;7.83;56.54
12213;BME280;6169;44.158;22.788;2023-02-23T07:11:49;101349.44;;;7.59;56.71
12213;BME280;6169;44.158;22.788;2023-02-23T07:16:54;101348.22;;;7.68;56.93
12213;BME280;6169;44.158;22.788;2023-02-23T07:21:56;101340.88;;;8.16;55.83
12213;BME280;6169;44.158;22.788;2023-02-23T07:26:59;101339.06;;;8.30;56.20
12213;BME280;6169;44.158;22.788;2023-02-23T07:32:03;101345.66;;;8.08;57.15
12213;BME280;6169;44.158;22.788;2023-02-23T07:37:05;101343.03;;;8.48;55.54
12213;BME280;6169;44.158;22.788;2023-02-23T07:42:08;101344.94;;;8.80;54.41
12213;BME280;6169;44.158;22.788;2023-02-23T07:47:11;101346.16;;;8.98;53.56
12213;BME280;6169;44.158;22.788;2023-02-23T07:52:16;101358.66;;;8.99;53.08
12213;BME280;6169;44.158;22.788;2023-02-23T07:57:19;101347.97;;;9.24;50.73
12213;BME280;6169;44.158;22.788;2023-02-23T08:02:23;101359.63;;;9.57;47.49
12213;BME280;6169;44.158;22.788;2023-02-23T08:07:26;101357.63;;;9.06;47.25
12213;BME280;6169;44.158;22.788;2023-02-23T08:12:28;101357.16;;;9.36;46.70
12213;BME280;6169;44.158;22.788;2023-02-23T08:17:32;101354.25;;;9.89;45.08
12213;BME280;6169;44.158;22.788;2023-02-23T08:22:34;101338.41;;;9.86;46.25
12213;BME280;6169;44.158;22.788;2023-02-23T08:27:37;101354.34;;;9.76;46.24
12213;BME280;6169;44.158;22.788;2023-02-23T08:32:42;101354.78;;;9.73;45.56
12213;BME280;6169;44.158;22.788;2023-02-23T08:37:44;101361.75;;;10.32;45.66
12213;BME280;6169;44.158;22.788;2023-02-23T08:42:46;101365.19;;;10.14;45.14
12213;BME280;6169;44.158;22.788;2023-02-23T08:47:53;101367.31;;;10.44;44.29
12213;BME280;6169;44.158;22.788;2023-02-23T08:52:55;101370.56;;;10.59;43.96
12213;BME280;6169;44.158;22.788;2023-02-23T08:57:58;101374.28;;;10.65;43.96
12213;BME280;6169;44.158;22.788;2023-02-23T09:03:03;101363.41;;;10.72;44.05
12213;BME280;6169;44.158;22.788;2023-02-23T09:08:06;101368.69;;;10.85;42.96
12213;BME280;6169;44.158;22.788;2023-02-23T09:13:09;101371.03;;;10.81;42.94
12213;BME280;6169;44.158;22.788;2023-02-23T09:18:13;101376.09;;;11.21;43.15
12213;BME280;6169;44.158;22.788;2023-02-23T09:23:17;101372.13;;;10.99;42.62
12213;BME280;6169;44.158;22.788;2023-02-23T09:28:19;101372.06;;;11.67;41.68
12213;BME280;6169;44.158;22.788;2023-02-23T09:33:23;101380.03;;;11.87;41.94
12213;BME280;6169;44.158;22.788;2023-02-23T09:38:26;101375.75;;;10.93;42.63
12213;BME280;6169;44.158;22.788;2023-02-23T09:43:32;101378.22;;;12.11;41.67
12213;BME280;6169;44.158;22.788;2023-02-23T09:48:38;101381.72;;;12.60;40.11
12213;BME280;6169;44.158;22.788;2023-02-23T09:53:43;101385.78;;;12.39;40.46
12213;BME280;6169;44.158;22.788;2023-02-23T09:58:48;101390.84;;;12.24;39.46
12213;BME280;6169;44.158;22.788;2023-02-23T10:03:55;101389.75;;;11.58;41.04
12213;BME280;6169;44.158;22.788;2023-02-23T10:09:07;101385.91;;;11.66;41.19
12213;BME280;6169;44.158;22.788;2023-02-23T10:14:26;101382.34;;;11.84;40.52
12213;BME280;6169;44.158;22.788;2023-02-23T10:19:38;101380.06;;;11.25;42.50
12213;BME280;6169;44.158;22.788;2023-02-23T10:24:47;101379.28;;;11.18;41.95
12213;BME280;6169;44.158;22.788;2023-02-23T10:29:53;101372.38;;;12.26;40.37
12213;BME280;6169;44.158;22.788;2023-02-23T10:34:58;101377.97;;;12.01;40.79
12213;BME280;6169;44.158;22.788;2023-02-23T10:40:01;101362.63;;;12.72;39.20
12213;BME280;6169;44.158;22.788;2023-02-23T10:45:12;101358.41;;;13.11;38.96
12213;BME280;6169;44.158;22.788;2023-02-23T10:50:24;101351.88;;;13.12;38.38
12213;BME280;6169;44.158;22.788;2023-02-23T10:55:30;101349.13;;;13.24;38.24
12213;BME280;6169;44.158;22.788;2023-02-23T11:00:33;101345.00;;;12.98;38.55
12213;BME280;6169;44.158;22.788;2023-02-23T11:05:44;101341.88;;;13.30;38.14
12213;BME280;6169;44.158;22.788;2023-02-23T11:11:16;101330.72;;;13.43;39.08
12213;BME280;6169;44.158;22.788;2023-02-23T11:16:20;101327.66;;;13.04;38.41
12213;BME280;6169;44.158;22.788;2023-02-23T11:21:27;101315.38;;;13.94;38.50
12213;BME280;6169;44.158;22.788;2023-02-23T11:26:36;101309.78;;;14.18;37.18
12213;BME280;6169;44.158;22.788;2023-02-23T11:31:46;101311.44;;;14.19;37.05
12213;BME280;6169;44.158;22.788;2023-02-23T11:37:00;101308.44;;;14.03;37.17
12213;BME280;6169;44.158;22.788;2023-02-23T11:42:13;101316.41;;;14.22;37.45
12213;BME280;6169;44.158;22.788;2023-02-23T11:47:17;101308.78;;;13.78;37.70
12213;BME280;6169;44.158;22.788;2023-02-23T11:52:23;101299.75;;;13.78;37.51
12213;BME280;6169;44.158;22.788;2023-02-23T11:57:29;101310.56;;;13.61;38.17
12213;BME280;6169;44.158;22.788;2023-02-23T12:02:46;101297.13;;;14.62;36.64
12213;BME280;6169;44.158;22.788;2023-02-23T12:07:54;101300.16;;;13.98;37.90
12213;BME280;6169;44.158;22.788;2023-02-23T12:13:03;101291.38;;;14.13;38.20
12213;BME280;6169;44.158;22.788;2023-02-23T12:18:14;101295.38;;;13.25;39.71
12213;BME280;6169;44.158;22.788;2023-02-23T12:23:22;101286.09;;;14.07;38.14
12213;BME280;6169;44.158;22.788;2023-02-23T12:28:30;101282.53;;;13.77;38.30
12213;BME280;6169;44.158;22.788;2023-02-23T12:33:38;101278.47;;;14.59;37.00
12213;BME280;6169;44.158;22.788;2023-02-23T12:38:48;101282.91;;;15.16;36.19
12213;BME280;6169;44.158;22.788;2023-02-23T12:43:56;101301.22;;;14.43;37.32
12213;BME280;6169;44.158;22.788;2023-02-23T12:49:05;101274.19;;;13.84;38.36
12213;BME280;6169;44.158;22.788;2023-02-23T12:54:15;101282.06;;;14.77;37.13
12213;BME280;6169;44.158;22.788;2023-02-23T13:05:00;101281.28;;;14.81;37.25
12213;BME280;6169;44.158;22.788;2023-02-23T13:10:15;101244.78;;;13.63;38.93
12213;BME280;6169;44.158;22.788;2023-02-23T13:15:26;101278.81;;;14.29;38.15
12213;BME280;6169;44.158;22.788;2023-02-23T13:20:35;101283.09;;;14.92;37.15
12213;BME280;6169;44.158;22.788;2023-02-23T13:25:47;101276.63;;;14.31;38.03
12213;BME280;6169;44.158;22.788;2023-02-23T13:30:52;101276.88;;;13.55;39.67
12213;BME280;6169;44.158;22.788;2023-02-23T13:35:56;101273.94;;;13.86;39.54
12213;BME280;6169;44.158;22.788;2023-02-23T13:41:08;101276.34;;;13.42;40.69
12213;BME280;6169;44.158;22.788;2023-02-23T13:46:27;101286.28;;;13.48;40.58
12213;BME280;6169;44.158;22.788;2023-02-23T13:51:36;101289.94;;;12.78;41.17
12213;BME280;6169;44.158;22.788;2023-02-23T13:56:45;101300.75;;;13.08;41.25
12213;BME280;6169;44.158;22.788;2023-02-23T14:01:50;101291.97;;;12.94;41.81
12213;BME280;6169;44.158;22.788;2023-02-23T14:06:57;101304.59;;;13.47;41.13
12213;BME280;6169;44.158;22.788;2023-02-23T14:12:10;101309.91;;;12.36;42.89
12213;BME280;6169;44.158;22.788;2023-02-23T14:17:55;101309.97;;;12.72;42.63
12213;BME280;6169;44.158;22.788;2023-02-23T14:23:17;101321.84;;;11.82;44.89
12213;BME280;6169;44.158;22.788;2023-02-23T14:28:34;101314.53;;;12.24;44.47
12213;BME280;6169;44.158;22.788;2023-02-23T14:33:49;101324.34;;;11.95;44.91
12213;BME280;6169;44.158;22.788;2023-02-23T14:38:58;101332.88;;;12.29;44.39
12213;BME280;6169;44.158;22.788;2023-02-23T14:44:05;101344.06;;;11.60;45.48
12213;BME280;6169;44.158;22.788;2023-02-23T14:49:13;101348.97;;;11.33;46.98
12213;BME280;6169;44.158;22.788;2023-02-23T14:54:24;101350.88;;;11.51;46.47
12213;BME280;6169;44.158;22.788;2023-02-23T14:59:35;101349.44;;;11.30;47.26
12213;BME280;6169;44.158;22.788;2023-02-23T15:04:37;101356.41;;;11.26;47.48
12213;BME280;6169;44.158;22.788;2023-02-23T15:09:41;101350.13;;;11.25;47.37
12213;BME280;6169;44.158;22.788;2023-02-23T15:14:47;101353.38;;;10.90;48.70
12213;BME280;6169;44.158;22.788;2023-02-23T15:19:54;101355.50;;;10.88;49.19
12213;BME280;6169;44.158;22.788;2023-02-23T15:24:59;101352.75;;;10.63;49.24
12213;BME280;6169;44.158;22.788;2023-02-23T15:30:22;101356.03;;;10.09;50.80
12213;BME280;6169;44.158;22.788;2023-02-23T15:35:27;101361.34;;;11.10;48.19
12213;BME280;6169;44.158;22.788;2023-02-23T15:40:31;101365.78;;;10.86;49.15
12213;BME280;6169;44.158;22.788;2023-02-23T15:45:39;101372.28;;;11.29;48.54
12213;BME280;6169;44.158;22.788;2023-02-23T15:50:43;101376.69;;;10.16;50.58
12213;BME280;6169;44.158;22.788;2023-02-23T15:55:52;101382.81;;;10.43;50.00
12213;BME280;6169;44.158;22.788;2023-02-23T16:00:58;101383.53;;;10.89;48.94
12213;BME280;6169;44.158;22.788;2023-02-23T16:06:06;101388.09;;;10.63;49.45
12213;BME280;6169;44.158;22.788;2023-02-23T16:11:11;101377.69;;;10.54;49.75
12213;BME280;6169;44.158;22.788;2023-02-23T16:16:19;101398.34;;;9.91;51.99
12213;BME280;6169;44.158;22.788;2023-02-23T16:21:25;101405.13;;;10.14;50.65
12213;BME280;6169;44.158;22.788;2023-02-23T16:26:32;101398.75;;;10.33;49.68
12213;BME280;6169;44.158;22.788;2023-02-23T16:31:42;101406.72;;;10.28;50.10
12213;BME280;6169;44.158;22.788;2023-02-23T16:36:48;101411.88;;;10.05;51.02
12213;BME280;6169;44.158;22.788;2023-02-23T16:41:51;101419.38;;;10.09;50.42
12213;BME280;6169;44.158;22.788;2023-02-23T16:47:10;101413.00;;;9.77;51.21
12213;BME280;6169;44.158;22.788;2023-02-23T16:52:16;101424.47;;;9.86;50.75
12213;BME280;6169;44.158;22.788;2023-02-23T16:57:21;101429.59;;;9.22;52.76
12213;BME280;6169;44.158;22.788;2023-02-23T17:02:26;101438.13;;;9.32;52.73
12213;BME280;6169;44.158;22.788;2023-02-23T17:07:28;101443.78;;;9.31;52.87
12213;BME280;6169;44.158;22.788;2023-02-23T17:12:31;101429.94;;;9.72;50.67
12213;BME280;6169;44.158;22.788;2023-02-23T17:17:35;101440.44;;;9.62;51.22
12213;BME280;6169;44.158;22.788;2023-02-23T17:22:39;101442.84;;;9.84;50.08
12213;BME280;6169;44.158;22.788;2023-02-23T17:27:42;101447.03;;;9.93;49.73
12213;BME280;6169;44.158;22.788;2023-02-23T17:32:46;101450.69;;;9.53;51.31
12213;BME280;6169;44.158;22.788;2023-02-23T17:37:48;101448.59;;;9.29;51.25
12213;BME280;6169;44.158;22.788;2023-02-23T17:42:51;101450.28;;;9.17;51.30
12213;BME280;6169;44.158;22.788;2023-02-23T17:47:55;101428.44;;;9.83;49.08
12213;BME280;6169;44.158;22.788;2023-02-23T17:52:58;101458.78;;;9.47;50.56
12213;BME280;6169;44.158;22.788;2023-02-23T17:58:00;101447.94;;;8.74;52.24
12213;BME280;6169;44.158;22.788;2023-02-23T18:03:04;101454.66;;;8.91;51.57
12213;BME280;6169;44.158;22.788;2023-02-23T18:08:06;101448.78;;;9.27;51.03
12213;BME280;6169;44.158;22.788;2023-02-23T18:13:09;101447.34;;;9.31;50.54
12213;BME280;6169;44.158;22.788;2023-02-23T18:18:13;101445.47;;;8.92;50.96
12213;BME280;6169;44.158;22.788;2023-02-23T18:23:15;101448.94;;;8.59;51.27
12213;BME280;6169;44.158;22.788;2023-02-23T18:28:18;101448.94;;;8.59;51.60
12213;BME280;6169;44.158;22.788;2023-02-23T18:33:21;101441.28;;;9.29;49.55
12213;BME280;6169;44.158;22.788;2023-02-23T18:38:24;101443.38;;;9.01;49.90
12213;BME280;6169;44.158;22.788;2023-02-23T18:43:26;101447.31;;;8.85;50.88
12213;BME280;6169;44.158;22.788;2023-02-23T18:48:30;101445.03;;;8.75;50.68
12213;BME280;6169;44.158;22.788;2023-02-23T18:53:33;101454.22;;;9.27;49.61
12213;BME280;6169;44.158;22.788;2023-02-23T18:58:37;101417.28;;;8.93;48.94
12213;BME280;6169;44.158;22.788;2023-02-23T19:03:42;101476.13;;;9.26;49.01
12213;BME280;6169;44.158;22.788;2023-02-23T19:08:47;101488.22;;;9.30;49.13
12213;BME280;6169;44.158;22.788;2023-02-23T19:13:55;101495.94;;;9.46;48.10
12213;BME280;6169;44.158;22.788;2023-02-23T19:19:00;101497.63;;;9.34;47.93
12213;BME280;6169;44.158;22.788;2023-02-23T19:24:04;101496.59;;;9.15;49.27
12213;BME280;6169;44.158;22.788;2023-02-23T19:29:07;101500.94;;;8.96;49.95
12213;BME280;6169;44.158;22.788;2023-02-23T19:34:11;101502.81;;;8.89;50.05
12213;BME280;6169;44.158;22.788;2023-02-23T19:39:15;101501.19;;;9.54;47.53
12213;BME280;6169;44.158;22.788;2023-02-23T19:44:18;101506.63;;;9.28;47.91
12213;BME280;6169;44.158;22.788;2023-02-23T19:49:22;101511.84;;;9.23;48.32
12213;BME280;6169;44.158;22.788;2023-02-23T19:54:25;101506.41;;;9.43;47.48
12213;BME280;6169;44.158;22.788;2023-02-23T19:59:28;101514.75;;;9.34;47.98
12213;BME280;6169;44.158;22.788;2023-02-23T20:04:32;101515.56;;;9.35;47.20
12213;BME280;6169;44.158;22.788;2023-02-23T20:09:35;101512.03;;;9.81;46.25
12213;BME280;6169;44.158;22.788;2023-02-23T20:14:38;101517.72;;;9.53;47.56
12213;BME280;6169;44.158;22.788;2023-02-23T20:19:42;101516.84;;;9.52;47.88
12213;BME280;6169;44.158;22.788;2023-02-23T20:24:45;101521.84;;;9.42;47.75
12213;BME280;6169;44.158;22.788;2023-02-23T20:29:47;101523.94;;;9.40;48.01
12213;BME280;6169;44.158;22.788;2023-02-23T20:34:52;101520.59;;;9.51;48.60
12213;BME280;6169;44.158;22.788;2023-02-23T20:39:54;101533.31;;;9.44;48.66
12213;BME280;6169;44.158;22.788;2023-02-23T20:44:57;101533.50;;;9.16;48.20
12213;BME280;6169;44.158;22.788;2023-02-23T20:50:02;101527.72;;;9.52;47.54
12213;BME280;6169;44.158;22.788;2023-02-23T20:55:05;101525.59;;;9.74;45.94
12213;BME280;6169;44.158;22.788;2023-02-23T21:00:10;101525.97;;;9.05;47.91
12213;BME280;6169;44.158;22.788;2023-02-23T21:05:15;101523.09;;;9.40;47.05
12213;BME280;6169;44.158;22.788;2023-02-23T21:10:17;101517.69;;;9.73;46.03
12213;BME280;6169;44.158;22.788;2023-02-23T21:15:21;101510.13;;;9.75;45.98
12213;BME280;6169;44.158;22.788;2023-02-23T21:20:27;101523.31;;;9.31;47.44
12213;BME280;6169;44.158;22.788;2023-02-23T21:25:29;101516.63;;;9.27;46.57
12213;BME280;6169;44.158;22.788;2023-02-23T21:30:32;101521.63;;;9.24;48.19
12213;BME280;6169;44.158;22.788;2023-02-23T21:35:36;101523.03;;;8.80;48.55
12213;BME280;6169;44.158;22.788;2023-02-23T21:40:38;101521.94;;;8.67;48.67
12213;BME280;6169;44.158;22.788;2023-02-23T21:45:41;101516.78;;;8.99;47.60
12213;BME280;6169;44.158;22.788;2023-02-23T21:50:47;101517.84;;;8.98;47.13
12213;BME280;6169;44.158;22.788;2023-02-23T21:55:50;101503.41;;;8.23;48.78
12213;BME280;6169;44.158;22.788;2023-02-23T22:00:52;101507.34;;;8.55;49.04
12213;BME280;6169;44.158;22.788;2023-02-23T22:05:59;101520.69;;;8.63;49.01
12213;BME280;6169;44.158;22.788;2023-02-23T22:11:05;101523.06;;;8.32;49.11
12213;BME280;6169;44.158;22.788;2023-02-23T22:16:09;101524.13;;;8.37;48.74
12213;BME280;6169;44.158;22.788;2023-02-23T22:21:15;101523.97;;;8.04;50.07
12213;BME280;6169;44.158;22.788;2023-02-23T22:26:18;101523.28;;;8.30;49.65
12213;BME280;6169;44.158;22.788;2023-02-23T22:31:20;101499.00;;;7.46;51.20
12213;BME280;6169;44.158;22.788;2023-02-23T22:36:24;101512.63;;;8.29;50.29
12213;BME280;6169;44.158;22.788;2023-02-23T22:41:27;101512.50;;;8.02;50.06
12213;BME280;6169;44.158;22.788;2023-02-23T22:46:30;101510.38;;;7.97;50.70
12213;BME280;6169;44.158;22.788;2023-02-23T22:51:34;101508.03;;;7.88;51.56
12213;BME280;6169;44.158;22.788;2023-02-23T22:56:37;101503.41;;;8.23;50.75
12213;BME280;6169;44.158;22.788;2023-02-23T23:01:42;101506.03;;;8.03;51.75
12213;BME280;6169;44.158;22.788;2023-02-23T23:06:46;101497.72;;;8.05;51.67
12213;BME280;6169;44.158;22.788;2023-02-23T23:11:48;101490.63;;;8.04;50.81
12213;BME280;6169;44.158;22.788;2023-02-23T23:16:51;101496.06;;;8.52;50.21
12213;BME280;6169;44.158;22.788;2023-02-23T23:21:55;101489.13;;;8.36;50.95
12213;BME280;6169;44.158;22.788;2023-02-23T23:27:00;101482.84;;;7.94;52.58
12213;BME280;6169;44.158;22.788;2023-02-23T23:32:07;101466.53;;;7.81;52.87
12213;BME280;6169;44.158;22.788;2023-02-23T23:37:11;101467.25;;;7.61;53.48
12213;BME280;6169;44.158;22.788;2023-02-23T23:42:14;101471.28;;;7.72;53.95
12213;BME280;6169;44.158;22.788;2023-02-23T23:47:16;101461.78;;;7.89;52.83
12213;BME280;6169;44.158;22.788;2023-02-23T23:52:20;101466.03;;;7.98;53.09
12213;BME280;6169;44.158;22.788;2023-02-23T23:57:24;101453.31;;;8.47;52.67
